Terminal Aerodrome Forecast
Issued by NWS

Home | Current Version | Previous Version | Text Only | Print | Product List | Glossary On
Versions: 1 2 3 4 5 6 7 8 9 10 11 12 13 14
396
FTUS44 KTSA 122322
TAFBVO
TAF
KBVO 122322Z 1300/1324 20003KT P6SM SKC
     FM131500 33011KT P6SM SCT120=

USA.gov is the U.S. government's official web portal to all federal, state and local government web resources and services.